Time;durP1;ratioP1;P1;durP2;ratioP2;P2;SDS_P1;SDS_P2;PMS_P1;PMS_P2;Temp;Humidity;BMP_temperature;BMP_pressure;BME280_temperature;BME280_humidity;BME280_pressure;Samples;Min_cycle;Max_cycle;Signal;HPM_P1;HPM_P2
2021/12/14 00:02:08;;;;;;;;;;;;;;;7.73;100.00;102694.53;5074944;28;19946;-35
2021/12/14 00:04:35;;;;;;;;;;;;;;;7.72;100.00;102695.53;5075249;28;19912;-35
2021/12/14 00:07:03;;;;;;;;;;;;;;;7.69;100.00;102694.00;5074507;28;19916;-35
2021/12/14 00:09:33;;;;;;;;;;;;;;;7.70;100.00;102689.47;5075296;28;20288;-35
2021/12/14 00:12:14;;;;;;;;;;;;;;;7.70;100.00;102686.75;5074994;28;19920;-35
2021/12/14 00:17:16;;;;;;;;;;;;;;;7.69;100.00;102682.41;5074632;28;19919;-35
2021/12/14 00:19:42;;;;;;;;;;;;;;;7.71;100.00;102693.81;5074864;28;19966;-35
2021/12/14 00:22:20;;;;;;;;;;;;;;;7.67;100.00;102697.88;5074427;28;19955;-35
2021/12/14 00:24:45;;;;;;;;;;;;;;;7.68;100.00;102694.19;5074487;28;19913;-35
2021/12/14 00:27:11;;;;;;;;;;;;;;;7.67;100.00;102696.03;5074738;28;19913;-35
2021/12/14 00:29:47;;;;;;;;;;;;;;;7.68;100.00;102697.72;5074127;28;19995;-35
2021/12/14 00:32:19;;;;;;;;;;;;;;;7.68;100.00;102704.94;5075136;28;19966;-35
2021/12/14 00:34:44;;;;;;;;;;;;;;;7.67;100.00;102703.28;5074002;28;19955;-35
2021/12/14 00:37:22;;;;;;;;;;;;;;;7.69;100.00;102706.63;5073911;28;20009;-35
2021/12/14 00:39:49;;;;;;;;;;;;;;;7.70;100.00;102711.00;5075000;28;19961;-35
2021/12/14 00:42:14;;;;;;;;;;;;;;;7.69;100.00;102725.47;5074046;28;19919;-35
2021/12/14 00:44:40;;;;;;;;;;;;;;;7.70;100.00;102730.69;5073880;28;19916;-35
2021/12/14 00:47:05;;;;;;;;;;;;;;;7.71;100.00;102723.44;5074446;28;19913;-35
2021/12/14 00:49:31;;;;;;;;;;;;;;;7.71;100.00;102734.22;5074810;28;19988;-35
2021/12/14 00:51:56;;;;;;;;;;;;;;;7.69;100.00;102742.47;5073983;28;20360;-36
2021/12/14 00:54:22;;;;;;;;;;;;;;;7.69;100.00;102747.03;5073716;28;20336;-35
2021/12/14 00:56:49;;;;;;;;;;;;;;;7.68;100.00;102745.34;5073947;28;20253;-35
2021/12/14 00:59:15;;;;;;;;;;;;;;;7.67;100.00;102738.28;5074601;28;19916;-35
2021/12/14 01:01:49;;;;;;;;;;;;;;;7.66;100.00;102742.81;5073499;28;20279;-35
2021/12/14 01:04:20;;;;;;;;;;;;;;;7.66;100.00;102736.56;5073841;28;19966;-35
2021/12/14 01:06:46;;;;;;;;;;;;;;;7.65;100.00;102727.66;5074326;28;20308;-36
2021/12/14 01:09:18;;;;;;;;;;;;;;;7.64;100.00;102720.59;5074220;28;19962;-36
2021/12/14 01:11:47;;;;;;;;;;;;;;;7.61;100.00;102717.38;5074336;28;19976;-35
2021/12/14 01:14:12;;;;;;;;;;;;;;;7.62;100.00;102719.09;5073948;28;19912;-35
2021/12/14 01:17:07;;;;;;;;;;;;;;;7.62;100.00;102727.16;5073683;28;19935;-35
2021/12/14 01:19:33;;;;;;;;;;;;;;;7.61;100.00;102715.56;5073680;28;19912;-35
2021/12/14 01:25:01;;;;;;;;;;;;;;;7.62;100.00;102730.69;5073631;28;20276;-35
2021/12/14 01:27:34;;;;;;;;;;;;;;;7.64;100.00;102722.44;5056974;28;19912;-35
2021/12/14 01:30:04;;;;;;;;;;;;;;;7.61;100.00;102712.88;5073491;28;19956;-35
2021/12/14 01:32:32;;;;;;;;;;;;;;;7.59;100.00;102696.00;5073408;28;19912;-35
2021/12/14 01:34:57;;;;;;;;;;;;;;;7.59;100.00;102698.72;5074202;28;19912;-35
2021/12/14 01:37:27;;;;;;;;;;;;;;;7.59;100.00;102697.88;5073406;28;19912;-35
2021/12/14 01:42:20;;;;;;;;;;;;;;;7.59;100.00;102708.63;5073359;28;20284;-35
2021/12/14 01:44:48;;;;;;;;;;;;;;;7.57;100.00;102702.59;5074180;28;19919;-35
2021/12/14 01:47:16;;;;;;;;;;;;;;;7.55;100.00;102699.19;5073362;28;19974;-35
2021/12/14 01:49:42;;;;;;;;;;;;;;;7.54;100.00;102694.84;5073072;28;19997;-35
2021/12/14 01:52:11;;;;;;;;;;;;;;;7.54;100.00;102692.97;5073389;28;19956;-35
2021/12/14 01:54:39;;;;;;;;;;;;;;;7.52;100.00;102692.31;5073372;28;19966;-35
2021/12/14 01:57:07;;;;;;;;;;;;;;;7.53;100.00;102682.38;5073605;28;20276;-35
2021/12/14 01:59:38;;;;;;;;;;;;;;;7.52;100.00;102688.78;5075641;28;19954;-35
2021/12/14 02:02:22;;;;;;;;;;;;;;;7.53;100.00;102687.78;5077182;28;20007;-35
2021/12/14 02:04:49;;;;;;;;;;;;;;;7.51;100.00;102671.75;5077997;28;20388;-35
2021/12/14 02:07:16;;;;;;;;;;;;;;;7.52;100.00;102669.94;5076826;28;20470;-35
2021/12/14 02:09:42;;;;;;;;;;;;;;;7.47;100.00;102665.88;5059329;28;20261;-35
2021/12/14 02:12:17;;;;;;;;;;;;;;;7.46;100.00;102666.88;5076709;28;19974;-35
2021/12/14 02:14:43;;;;;;;;;;;;;;;7.45;100.00;102657.13;5076939;28;19912;-35
2021/12/14 02:17:09;;;;;;;;;;;;;;;7.46;100.00;102677.66;5076936;28;20011;-36
2021/12/14 02:19:35;;;;;;;;;;;;;;;7.47;100.00;102678.50;5076674;28;19958;-35
2021/12/14 02:22:03;;;;;;;;;;;;;;;7.47;100.00;102684.72;5076576;28;19916;-35
2021/12/14 02:24:29;;;;;;;;;;;;;;;7.46;100.00;102676.81;5076828;28;20359;-35
2021/12/14 02:26:54;;;;;;;;;;;;;;;7.45;100.00;102673.28;5076753;28;19916;-35
2021/12/14 02:29:27;;;;;;;;;;;;;;;7.45;100.00;102683.19;5076882;28;19916;-35
2021/12/14 02:31:54;;;;;;;;;;;;;;;7.46;100.00;102676.81;5076694;28;19916;-35
2021/12/14 02:34:19;;;;;;;;;;;;;;;7.44;100.00;102685.06;5076740;28;19912;-35
2021/12/14 02:36:46;;;;;;;;;;;;;;;7.43;100.00;102688.75;5077079;28;19912;-35
2021/12/14 02:39:46;;;;;;;;;;;;;;;7.43;100.00;102699.53;5076619;28;19916;-35
2021/12/14 02:42:09;;;;;;;;;;;;;;;7.42;100.00;102691.63;5076317;28;19912;-35
2021/12/14 02:44:35;;;;;;;;;;;;;;;7.42;100.00;102688.94;5076778;28;19912;-35
2021/12/14 02:47:03;;;;;;;;;;;;;;;7.42;100.00;102687.09;5076138;28;20057;-35
2021/12/14 02:49:30;;;;;;;;;;;;;;;7.42;100.00;102675.47;5076883;28;19913;-36
2021/12/14 02:51:57;;;;;;;;;;;;;;;7.40;100.00;102675.63;5076358;28;19919;-35
2021/12/14 02:54:27;;;;;;;;;;;;;;;7.39;100.00;102663.19;5077139;28;20275;-35
2021/12/14 02:56:56;;;;;;;;;;;;;;;7.40;100.00;102656.78;5076280;28;20399;-35
2021/12/14 02:59:26;;;;;;;;;;;;;;;7.41;100.00;102671.91;5076146;28;19923;-35
2021/12/14 03:01:52;;;;;;;;;;;;;;;7.40;100.00;102656.78;5075808;28;19919;-35
2021/12/14 03:04:18;;;;;;;;;;;;;;;7.40;100.00;102664.84;5076645;28;20022;-35
2021/12/14 03:06:47;;;;;;;;;;;;;;;7.39;100.00;102660.47;5076060;28;19964;-35
2021/12/14 03:09:38;;;;;;;;;;;;;;;7.39;100.00;102651.56;5076569;28;20364;-35
2021/12/14 03:12:09;;;;;;;;;;;;;;;7.38;100.00;102650.72;5076772;28;20309;-35
2021/12/14 03:14:34;;;;;;;;;;;;;;;7.33;100.00;102636.94;5075919;28;20376;-35
2021/12/14 03:17:00;;;;;;;;;;;;;;;7.32;100.00;102615.53;5075883;28;19916;-35
2021/12/14 03:19:26;;;;;;;;;;;;;;;7.26;100.00;102629.66;5076163;28;19916;-35
2021/12/14 03:21:51;;;;;;;;;;;;;;;7.26;100.00;102635.06;5075427;28;20268;-35
2021/12/14 03:24:19;;;;;;;;;;;;;;;7.26;100.00;102641.28;5076387;28;20348;-35
2021/12/14 03:26:46;;;;;;;;;;;;;;;7.23;100.00;102639.78;5075663;28;20323;-35
2021/12/14 03:29:14;;;;;;;;;;;;;;;7.23;100.00;102633.56;5075662;28;19919;-35
2021/12/14 03:31:41;;;;;;;;;;;;;;;7.23;100.00;102631.69;5075331;28;19989;-35
2021/12/14 03:34:13;;;;;;;;;;;;;;;7.21;100.00;102640.94;5075649;28;19981;-35
2021/12/14 03:36:42;;;;;;;;;;;;;;;7.23;100.00;102629.00;5075508;28;20006;-35
2021/12/14 03:39:16;;;;;;;;;;;;;;;7.22;100.00;102624.66;5075746;28;19948;-35
2021/12/14 03:41:49;;;;;;;;;;;;;;;7.20;100.00;102626.63;5075536;28;20003;-35
2021/12/14 03:44:20;;;;;;;;;;;;;;;7.20;100.00;102634.72;5075448;28;20020;-35
2021/12/14 03:46:49;;;;;;;;;;;;;;;7.18;100.00;102652.03;5057285;28;19962;-35
2021/12/14 03:49:15;;;;;;;;;;;;;;;7.19;100.00;102653.72;5075503;28;19912;-35
2021/12/14 03:51:40;;;;;;;;;;;;;;;7.17;100.00;102664.66;5075260;28;20417;-35
2021/12/14 03:54:06;;;;;;;;;;;;;;;7.17;100.00;102670.03;5075151;28;19962;-35
2021/12/14 03:56:31;;;;;;;;;;;;;;;7.18;100.00;102677.09;5075155;28;19913;-35
2021/12/14 03:58:57;;;;;;;;;;;;;;;7.18;100.00;102684.34;5075344;28;20345;-35
2021/12/14 04:01:33;;;;;;;;;;;;;;;7.18;100.00;102681.63;5074638;28;20008;-35
2021/12/14 04:04:01;;;;;;;;;;;;;;;7.19;100.00;102688.69;5056881;28;19958;-35
2021/12/14 04:06:27;;;;;;;;;;;;;;;7.17;100.00;102698.75;5074965;28;19958;-35
2021/12/14 04:08:53;;;;;;;;;;;;;;;7.16;100.00;102694.41;5074689;28;20368;-35
2021/12/14 04:11:18;;;;;;;;;;;;;;;7.17;100.00;102688.00;5074513;28;19951;-35
2021/12/14 04:13:45;;;;;;;;;;;;;;;7.16;100.00;102686.31;5075041;28;19948;-35
2021/12/14 04:16:13;;;;;;;;;;;;;;;7.14;100.00;102674.91;5075150;28;19912;-35
2021/12/14 04:18:38;;;;;;;;;;;;;;;7.16;100.00;102681.78;5075002;28;19913;-35
2021/12/14 04:21:04;;;;;;;;;;;;;;;7.15;100.00;102673.88;5074504;28;19913;-35
2021/12/14 04:23:31;;;;;;;;;;;;;;;7.16;100.00;102672.88;5073889;28;20424;-35
2021/12/14 04:25:58;;;;;;;;;;;;;;;7.17;100.00;102670.03;5074602;28;19912;-35
2021/12/14 04:28:25;;;;;;;;;;;;;;;7.16;100.00;102676.41;5074418;28;19918;-35
2021/12/14 04:30:50;;;;;;;;;;;;;;;7.15;100.00;102673.88;5074357;28;19912;-35
2021/12/14 04:33:18;;;;;;;;;;;;;;;7.16;100.00;102672.88;5075325;28;19912;-35
2021/12/14 04:35:44;;;;;;;;;;;;;;;7.15;100.00;102666.66;5074926;28;19919;-35
2021/12/14 04:38:18;;;;;;;;;;;;;;;7.15;100.00;102673.88;5074073;28;19916;-35
2021/12/14 04:54:06;;;;;;;;;;;;;;;7.16;100.00;102659.41;5074414;28;20284;-35
2021/12/14 04:56:34;;;;;;;;;;;;;;;7.15;100.00;102671.19;5073943;28;19912;-35
2021/12/14 04:59:10;;;;;;;;;;;;;;;7.15;100.00;102658.56;5074265;28;19920;-35
2021/12/14 05:01:38;;;;;;;;;;;;;;;7.15;100.00;102655.06;5074080;28;19913;-35
2021/12/14 05:04:05;;;;;;;;;;;;;;;7.15;100.00;102653.19;5073469;28;19919;-34
2021/12/14 05:06:46;;;;;;;;;;;;;;;7.14;100.00;102666.81;5073552;28;19916;-35
2021/12/14 05:09:28;;;;;;;;;;;;;;;7.14;100.00;102664.13;5073730;28;19966;-35
2021/12/14 05:11:53;;;;;;;;;;;;;;;7.13;100.00;102652.53;5073743;28;19916;-34
2021/12/14 05:14:19;;;;;;;;;;;;;;;7.13;100.00;102649.00;5074403;28;19913;-34
2021/12/14 05:16:44;;;;;;;;;;;;;;;7.13;100.00;102657.06;5073343;28;20523;-35
2021/12/14 05:19:11;;;;;;;;;;;;;;;7.12;100.00;102650.00;5073442;28;19947;-35
2021/12/14 05:21:38;;;;;;;;;;;;;;;7.12;100.00;102647.28;5073288;28;20338;-35
2021/12/14 05:24:05;;;;;;;;;;;;;;;7.12;100.00;102644.59;5073585;28;20313;-35
2021/12/14 05:26:31;;;;;;;;;;;;;;;7.11;100.00;102642.94;5073439;28;19927;-35
2021/12/14 05:28:56;;;;;;;;;;;;;;;7.10;100.00;102644.78;5073679;28;20334;-35
2021/12/14 05:31:22;;;;;;;;;;;;;;;7.08;100.00;102643.28;5073227;28;20009;-36
2021/12/14 05:33:47;;;;;;;;;;;;;;;7.07;100.00;102642.41;5072699;28;19912;-36
2021/12/14 05:36:16;;;;;;;;;;;;;;;7.04;100.00;102636.53;5074058;28;19912;-35
2021/12/14 05:38:58;;;;;;;;;;;;;;;7.05;100.00;102646.28;5073511;28;19951;-35
2021/12/14 05:44:11;;;;;;;;;;;;;;;7.07;100.00;102644.25;5073479;28;20280;-35
2021/12/14 05:46:36;;;;;;;;;;;;;;;7.07;100.00;102652.31;5073053;28;20400;-35
2021/12/14 05:49:04;;;;;;;;;;;;;;;7.07;100.00;102655.84;5073392;28;20015;-35
2021/12/14 05:51:31;;;;;;;;;;;;;;;7.09;100.00;102663.78;5073917;28;19920;-35
2021/12/14 05:53:56;;;;;;;;;;;;;;;7.10;100.00;102665.47;5073617;28;19912;-35
2021/12/14 05:56:22;;;;;;;;;;;;;;;7.08;100.00;102659.41;5073368;28;19920;-35
2021/12/14 05:58:49;;;;;;;;;;;;;;;7.06;100.00;102664.09;5074096;28;20022;-35
2021/12/14 06:01:16;;;;;;;;;;;;;;;7.06;100.00;102666.78;5073618;28;20319;-35
2021/12/14 06:03:46;;;;;;;;;;;;;;;7.06;100.00;102666.78;5073238;28;19952;-35
2021/12/14 06:06:16;;;;;;;;;;;;;;;7.07;100.00;102665.78;5073418;28;19913;-35
2021/12/14 06:08:42;;;;;;;;;;;;;;;7.04;100.00;102658.91;5073472;28;20349;-35
2021/12/14 06:11:09;;;;;;;;;;;;;;;7.05;100.00;102667.81;5073855;28;19966;-35
2021/12/14 06:13:40;;;;;;;;;;;;;;;7.05;100.00;102671.34;5073313;28;20340;-35
2021/12/14 06:16:08;;;;;;;;;;;;;;;7.06;100.00;102686.47;5072740;28;20376;-35
2021/12/14 06:18:33;;;;;;;;;;;;;;;7.06;100.00;102677.56;5073810;28;20307;-35
2021/12/14 06:20:58;;;;;;;;;;;;;;;7.07;100.00;102673.84;5072995;28;19912;-35
2021/12/14 06:23:28;;;;;;;;;;;;;;;7.05;100.00;102683.94;5073716;28;20046;-35
2021/12/14 06:25:54;;;;;;;;;;;;;;;7.06;100.00;102691.00;5072923;28;20348;-35
2021/12/14 06:28:23;;;;;;;;;;;;;;;7.09;100.00;102690.69;5073068;28;19924;-35
2021/12/14 06:30:48;;;;;;;;;;;;;;;7.09;100.00;102685.31;5072709;28;19919;-35
2021/12/14 06:33:14;;;;;;;;;;;;;;;7.07;100.00;102682.75;5073880;28;19912;-35
2021/12/14 06:35:44;;;;;;;;;;;;;;;7.06;100.00;102691.84;5073425;28;19970;-35
2021/12/14 06:38:22;;;;;;;;;;;;;;;7.05;100.00;102682.09;5073739;28;19930;-35
2021/12/14 06:41:06;;;;;;;;;;;;;;;7.04;100.00;102685.78;5073091;28;19971;-35
2021/12/14 06:43:51;;;;;;;;;;;;;;;7.04;100.00;102682.25;5072629;28;19912;-35
2021/12/14 06:46:20;;;;;;;;;;;;;;;7.03;100.00;102686.81;5076227;28;19920;-35
2021/12/14 06:49:06;;;;;;;;;;;;;;;7.03;100.00;102694.88;5076433;28;20288;-35
2021/12/14 06:52:01;;;;;;;;;;;;;;;7.03;100.00;102694.00;5077248;28;19934;-35
2021/12/14 06:54:28;;;;;;;;;;;;;;;7.03;100.00;102702.06;4995140;28;20032;-35
2021/12/14 06:56:55;;;;;;;;;;;;;;;7.01;100.00;102702.25;4995505;28;19917;-35
2021/12/14 06:59:20;;;;;;;;;;;;;;;7.04;100.00;102703.78;4995492;28;20321;-35
2021/12/14 07:01:47;;;;;;;;;;;;;;;7.04;100.00;102709.16;4994514;28;19914;-35
2021/12/14 07:04:15;;;;;;;;;;;;;;;7.02;100.00;102706.63;4994830;28;19925;-35
2021/12/14 07:06:42;;;;;;;;;;;;;;;7.03;100.00;102712.84;4994435;28;19924;-35
2021/12/14 07:09:13;;;;;;;;;;;;;;;7.03;100.00;102715.53;4994793;28;19914;-35
2021/12/14 07:11:44;;;;;;;;;;;;;;;7.03;100.00;102718.22;4994501;28;19914;-35
2021/12/14 07:14:20;;;;;;;;;;;;;;;7.05;100.00;102713.53;4995164;28;20373;-35
2021/12/14 07:16:47;;;;;;;;;;;;;;;7.04;100.00;102728.00;4994847;28;19976;-35
2021/12/14 07:19:12;;;;;;;;;;;;;;;7.04;100.00;102719.94;4994594;28;19920;-35
2021/12/14 07:21:37;;;;;;;;;;;;;;;7.04;100.00;102722.63;4994193;28;20016;-35
2021/12/14 07:24:26;;;;;;;;;;;;;;;7.04;100.00;102730.69;4994979;28;19914;-35
2021/12/14 07:27:11;;;;;;;;;;;;;;;7.03;100.00;102731.66;4956496;29;19977;-35
2021/12/14 07:29:36;;;;;;;;;;;;;;;7.04;100.00;102730.69;4955392;28;19921;-35
2021/12/14 07:32:02;;;;;;;;;;;;;;;7.03;100.00;102735.22;5014147;28;19913;-35
2021/12/14 07:34:27;;;;;;;;;;;;;;;7.03;100.00;102739.72;5013572;28;19917;-35
2021/12/14 07:36:52;;;;;;;;;;;;;;;7.02;100.00;102744.28;4998076;28;19949;-35
2021/12/14 07:39:18;;;;;;;;;;;;;;;7.03;100.00;102750.50;5013585;28;20407;-35
2021/12/14 07:41:45;;;;;;;;;;;;;;;7.04;100.00;102752.22;5013586;28;20358;-35
2021/12/14 07:44:14;;;;;;;;;;;;;;;7.04;100.00;102749.50;5013676;28;19968;-35
2021/12/14 07:46:43;;;;;;;;;;;;;;;7.04;100.00;102760.28;5014084;28;19921;-35
2021/12/14 07:49:19;;;;;;;;;;;;;;;7.03;100.00;102756.75;5013947;28;19914;-35
2021/12/14 07:51:45;;;;;;;;;;;;;;;7.02;100.00;102760.41;5013555;28;19921;-35
2021/12/14 07:54:21;;;;;;;;;;;;;;;7.04;100.00;102762.97;5013355;28;19914;-35
2021/12/14 07:56:49;;;;;;;;;;;;;;;7.05;100.00;102764.66;5012840;28;20329;-35
2021/12/14 07:59:22;;;;;;;;;;;;;;;7.06;100.00;102769.00;5013024;28;19917;-35
2021/12/14 08:01:49;;;;;;;;;;;;;;;7.07;100.00;102762.63;4997100;28;20346;-35
2021/12/14 08:04:14;;;;;;;;;;;;;;;7.06;100.00;102763.63;5041465;28;20288;-36
2021/12/14 08:06:44;;;;;;;;;;;;;;;7.05;100.00;102772.72;5054809;28;19916;-35
2021/12/14 08:09:11;;;;;;;;;;;;;;;7.04;100.00;102777.25;5054773;28;19920;-35
2021/12/14 08:14:08;;;;;;;;;;;;;;;7.05;100.00;102776.25;5055031;28;20422;-35
2021/12/14 08:16:41;;;;;;;;;;;;;;;7.07;100.00;102776.06;5054828;28;20003;-36
2021/12/14 08:19:11;;;;;;;;;;;;;;;7.05;100.00;102778.09;5055448;28;19967;-35
2021/12/14 08:21:41;;;;;;;;;;;;;;;7.06;100.00;102779.78;5054914;28;19919;-35
2021/12/14 08:24:06;;;;;;;;;;;;;;;7.06;100.00;102783.31;5054406;28;19912;-36
2021/12/14 08:26:37;;;;;;;;;;;;;;;7.09;100.00;102774.94;5054455;28;20344;-35
2021/12/14 08:29:05;;;;;;;;;;;;;;;7.10;100.00;102781.16;5054507;28;19963;-36
2021/12/14 08:31:38;;;;;;;;;;;;;;;7.12;100.00;102784.50;5054446;28;19913;-35
2021/12/14 08:34:06;;;;;;;;;;;;;;;7.14;100.00;102785.22;5054436;28;20353;-36
2021/12/14 08:36:34;;;;;;;;;;;;;;;7.12;100.00;102779.13;5054358;28;20407;-36
2021/12/14 08:39:02;;;;;;;;;;;;;;;7.12;100.00;102788.03;5054234;28;19916;-35
2021/12/14 08:41:27;;;;;;;;;;;;;;;7.15;100.00;102792.25;5054469;28;19917;-35
2021/12/14 08:43:54;;;;;;;;;;;;;;;7.16;100.00;102786.72;5054854;28;20065;-36
2021/12/14 08:46:22;;;;;;;;;;;;;;;7.18;100.00;102794.66;5054203;28;19916;-36
2021/12/14 08:49:15;;;;;;;;;;;;;;;7.18;100.00;102784.72;5054578;28;19913;-35
2021/12/14 08:51:44;;;;;;;;;;;;;;;7.12;100.00;102779.13;5051898;28;19912;-36
2021/12/14 08:54:18;;;;;;;;;;;;;;;7.20;100.00;102801.53;5053795;28;20019;-35
2021/12/14 08:56:46;;;;;;;;;;;;;;;7.22;100.00;102799.53;5054481;28;19921;-36
2021/12/14 08:59:12;;;;;;;;;;;;;;;7.23;100.00;102800.38;5066587;28;19916;-35
2021/12/14 09:01:40;;;;;;;;;;;;;;;7.24;100.00;102802.06;5074236;28;20309;-36
2021/12/14 09:04:11;;;;;;;;;;;;;;;7.28;100.00;102791.84;5074513;28;19935;-36
2021/12/14 09:06:39;;;;;;;;;;;;;;;7.32;100.00;102801.25;5074243;28;19912;-36
2021/12/14 09:09:05;;;;;;;;;;;;;;;7.33;100.00;102795.72;5074080;28;19917;-35
2021/12/14 09:11:35;;;;;;;;;;;;;;;7.37;100.00;102790.84;5073480;28;19912;-36
2021/12/14 09:14:01;;;;;;;;;;;;;;;7.40;100.00;102796.75;5073790;28;19912;-36
2021/12/14 09:16:27;;;;;;;;;;;;;;;7.44;100.00;102797.28;5055943;28;20378;-36
2021/12/14 09:18:56;;;;;;;;;;;;;;;7.46;100.00;102801.47;5073855;28;19963;-36
2021/12/14 09:21:24;;;;;;;;;;;;;;;7.47;100.00;102805.88;5073431;28;19978;-35
2021/12/14 09:23:51;;;;;;;;;;;;;;;7.52;100.00;102804.53;5073818;28;20109;-35
2021/12/14 09:26:18;;;;;;;;;;;;;;;7.56;100.00;102805.88;5073631;28;20276;-35
2021/12/14 09:28:44;;;;;;;;;;;;;;;7.59;100.00;102800.19;5074275;28;19912;-36
2021/12/14 09:31:13;;;;;;;;;;;;;;;7.60;100.00;102801.84;5073624;28;19917;-35
2021/12/14 09:33:40;;;;;;;;;;;;;;;7.63;100.00;102805.06;5073423;28;19912;-36
2021/12/14 09:36:12;;;;;;;;;;;;;;;7.65;100.00;102800.34;5074094;28;19919;-35
2021/12/14 09:38:40;;;;;;;;;;;;;;;7.68;100.00;102804.59;5073895;28;20326;-36
2021/12/14 09:41:07;;;;;;;;;;;;;;;7.68;100.00;102802.72;5073428;28;19912;-35
2021/12/14 09:43:33;;;;;;;;;;;;;;;7.68;100.00;102799.19;5073325;28;19935;-35
2021/12/14 09:45:59;;;;;;;;;;;;;;;7.70;100.00;102791.78;5073587;28;19913;-36
2021/12/14 09:48:27;;;;;;;;;;;;;;;7.68;100.00;102794.66;5073581;28;19912;-35
2021/12/14 09:50:53;;;;;;;;;;;;;;;7.74;100.00;102798.53;5073488;28;19955;-36
2021/12/14 09:53:20;;;;;;;;;;;;;;;7.73;100.00;102791.47;5073240;28;19912;-35
2021/12/14 09:55:47;;;;;;;;;;;;;;;7.77;100.00;102784.75;5073163;28;19958;-35
2021/12/14 09:58:14;;;;;;;;;;;;;;;7.77;100.00;102787.44;5073267;28;19912;-36
2021/12/14 10:00:53;;;;;;;;;;;;;;;7.80;100.00;102794.34;5073662;28;19948;-35
2021/12/14 10:03:18;;;;;;;;;;;;;;;7.82;100.00;102790.47;5073452;28;19934;-36
2021/12/14 10:05:46;;;;;;;;;;;;;;;7.84;100.00;102791.16;5073666;28;20003;-35
2021/12/14 10:08:15;;;;;;;;;;;;;;;7.87;100.00;102788.13;5073233;28;19912;-35
2021/12/14 10:10:46;;;;;;;;;;;;;;;7.91;100.00;102786.81;5073329;28;20284;-36
2021/12/14 10:13:11;;;;;;;;;;;;;;;7.94;100.00;102793.69;5073833;28;20052;-36
2021/12/14 10:15:47;;;;;;;;;;;;;;;8.00;100.00;102799.28;5073476;28;19956;-36
2021/12/14 10:18:15;;;;;;;;;;;;;;;8.05;100.00;102800.59;5073663;28;20363;-36
2021/12/14 10:20:46;;;;;;;;;;;;;;;8.04;100.00;102794.38;5075491;28;19966;-36
2021/12/14 10:23:12;;;;;;;;;;;;;;;8.07;100.00;102801.28;5076948;28;19912;-35
2021/12/14 10:25:38;;;;;;;;;;;;;;;8.07;100.00;102795.91;5077772;28;19912;-36
2021/12/14 10:28:04;;;;;;;;;;;;;;;8.08;100.00;102792.19;5076840;28;19912;-35
2021/12/14 10:30:35;;;;;;;;;;;;;;;8.12;100.00;102794.41;5077097;28;20391;-36
2021/12/14 10:33:01;;;;;;;;;;;;;;;8.12;100.00;102796.25;5077452;28;19912;-36
2021/12/14 10:35:33;;;;;;;;;;;;;;;8.13;100.00;102808.72;5077158;28;19913;-35
2021/12/14 10:38:12;;;;;;;;;;;;;;;8.14;100.00;102811.22;5077274;28;19916;-35
2021/12/14 10:43:23;;;;;;;;;;;;;;;8.16;100.00;102806.53;5076417;28;20244;-35
2021/12/14 10:45:48;;;;;;;;;;;;;;;8.19;100.00;102802.63;5076836;28;19913;-36
2021/12/14 10:48:14;;;;;;;;;;;;;;;8.18;100.00;102796.41;5076590;28;19918;-36
2021/12/14 10:50:39;;;;;;;;;;;;;;;8.19;100.00;102789.16;5076631;28;19959;-36
2021/12/14 10:53:07;;;;;;;;;;;;;;;8.20;100.00;102794.41;5076344;28;19913;-36
2021/12/14 10:55:44;;;;;;;;;;;;;;;8.21;100.00;102795.25;5076725;28;19993;-35
2021/12/14 10:58:11;;;;;;;;;;;;;;;8.22;100.00;102796.94;5076480;28;20003;-36
2021/12/14 11:00:40;;;;;;;;;;;;;;;8.24;100.00;102795.72;5076018;28;19912;-35
2021/12/14 11:03:10;;;;;;;;;;;;;;;8.24;100.00;102789.50;5076432;28;20257;-36
2021/12/14 11:05:37;;;;;;;;;;;;;;;8.26;100.00;102792.88;5077353;28;19912;-36
2021/12/14 11:08:04;;;;;;;;;;;;;;;8.28;100.00;102790.84;5076212;28;19952;-35
2021/12/14 11:10:33;;;;;;;;;;;;;;;8.30;100.00;102791.56;5076889;28;19923;-35
2021/12/14 11:13:03;;;;;;;;;;;;;;;8.32;100.00;102785.97;5076298;28;19912;-35
2021/12/14 11:15:32;;;;;;;;;;;;;;;8.35;100.00;102789.19;5075652;28;19912;-35
2021/12/14 11:18:08;;;;;;;;;;;;;;;8.37;100.00;102784.50;5075898;28;19979;-35
2021/12/14 11:20:52;;;;;;;;;;;;;;;8.39;100.00;102774.38;5076100;28;19954;-35
2021/12/14 11:23:20;;;;;;;;;;;;;;;8.41;100.00;102768.81;5075835;28;19913;-35
2021/12/14 11:25:51;;;;;;;;;;;;;;;8.46;100.00;102771.84;5076617;28;19966;-35
2021/12/14 11:28:22;;;;;;;;;;;;;;;8.48;100.00;102767.97;5076047;28;19919;-35
2021/12/14 11:30:49;;;;;;;;;;;;;;;8.54;100.00;102768.28;5075291;28;20016;-35
2021/12/14 11:33:20;;;;;;;;;;;;;;;8.56;100.00;102768.97;5074735;28;20003;-35
2021/12/14 11:35:58;;;;;;;;;;;;;;;8.56;100.00;102760.88;5075923;28;20276;-35
2021/12/14 11:38:25;;;;;;;;;;;;;;;8.58;100.00;102767.78;5075696;28;19946;-35
2021/12/14 11:40:51;;;;;;;;;;;;;;;8.60;100.00;102764.94;5076604;28;20233;-35
2021/12/14 11:43:18;;;;;;;;;;;;;;;8.59;100.00;102769.50;5075556;28;19919;-35
2021/12/14 11:45:47;;;;;;;;;;;;;;;8.61;100.00;102763.91;5075651;28;19913;-35
2021/12/14 11:48:12;;;;;;;;;;;;;;;8.63;100.00;102773.50;5075334;28;19959;-35
2021/12/14 11:50:41;;;;;;;;;;;;;;;8.64;100.00;102763.59;5075874;28;20361;-35
2021/12/14 11:53:06;;;;;;;;;;;;;;;8.64;100.00;102768.97;5075265;28;20319;-35
2021/12/14 11:55:41;;;;;;;;;;;;;;;8.62;100.00;102757.50;5075580;28;19965;-35
2021/12/14 11:58:10;;;;;;;;;;;;;;;8.63;100.00;102767.25;5074931;28;19919;-35
2021/12/14 12:00:38;;;;;;;;;;;;;;;8.64;100.00;102758.19;5075371;28;20012;-35
2021/12/14 12:03:24;;;;;;;;;;;;;;;8.65;100.00;102763.41;5075319;28;19912;-35
2021/12/14 12:05:59;;;;;;;;;;;;;;;8.68;100.00;102770.28;5075549;28;19922;-35
2021/12/14 12:11:10;;;;;;;;;;;;;;;8.72;100.00;102769.78;5074777;28;20003;-36
2021/12/14 12:13:36;;;;;;;;;;;;;;;8.72;100.00;102769.78;5074998;28;20332;-36
2021/12/14 12:16:13;;;;;;;;;;;;;;;8.74;100.00;102767.75;5075548;28;19963;-36
2021/12/14 12:18:38;;;;;;;;;;;;;;;8.73;100.00;102768.75;5074811;28;19912;-36
2021/12/14 12:21:04;;;;;;;;;;;;;;;8.74;100.00;102764.22;5075441;28;19927;-36
2021/12/14 12:23:32;;;;;;;;;;;;;;;8.73;100.00;102770.63;5074341;28;19916;-36
2021/12/14 12:26:01;;;;;;;;;;;;;;;8.72;100.00;102766.25;5074907;28;19966;-36
2021/12/14 12:28:29;;;;;;;;;;;;;;;8.71;100.00;102760.00;5074535;28;19912;-36
2021/12/14 12:30:54;;;;;;;;;;;;;;;8.70;100.00;102762.88;5074831;28;20324;-36
2021/12/14 12:33:19;;;;;;;;;;;;;;;8.70;100.00;102763.72;5074703;28;19958;-36
2021/12/14 12:35:44;;;;;;;;;;;;;;;8.72;100.00;102760.84;5074789;28;20348;-36
2021/12/14 12:38:28;;;;;;;;;;;;;;;8.73;100.00;102759.81;5074474;28;19913;-36
2021/12/14 12:40:56;;;;;;;;;;;;;;;8.73;100.00;102757.97;5074102;28;19912;-35
2021/12/14 12:43:31;;;;;;;;;;;;;;;8.75;100.00;102760.50;5074345;28;20375;-36
2021/12/14 12:45:59;;;;;;;;;;;;;;;8.77;100.00;102756.63;5074428;28;19928;-36
2021/12/14 12:48:38;;;;;;;;;;;;;;;8.79;100.00;102761.84;5074742;28;20007;-36
2021/12/14 12:51:03;;;;;;;;;;;;;;;8.79;100.00;102756.47;5074214;28;19912;-35
2021/12/14 12:53:28;;;;;;;;;;;;;;;8.81;100.00;102754.41;5074459;28;19939;-35
2021/12/14 12:56:02;;;;;;;;;;;;;;;8.84;100.00;102746.00;5074086;28;19912;-36
2021/12/14 12:58:27;;;;;;;;;;;;;;;8.84;100.00;102747.84;5074151;28;19916;-36
2021/12/14 13:00:56;;;;;;;;;;;;;;;8.86;100.00;102760.13;5074314;28;19973;-36
2021/12/14 13:03:26;;;;;;;;;;;;;;;8.83;100.00;102757.78;5074167;28;20355;-36
2021/12/14 13:05:53;;;;;;;;;;;;;;;8.84;100.00;102754.09;5074108;28;19916;-36
2021/12/14 13:08:24;;;;;;;;;;;;;;;8.85;100.00;102752.22;5073453;28;19947;-36
2021/12/14 13:11:10;;;;;;;;;;;;;;;8.84;100.00;102740.59;5074587;28;19916;-36
2021/12/14 13:13:46;;;;;;;;;;;;;;;8.83;100.00;102757.78;5073217;28;20006;-36
2021/12/14 13:16:12;;;;;;;;;;;;;;;8.82;100.00;102750.69;5074493;28;19978;-36
2021/12/14 13:18:40;;;;;;;;;;;;;;;8.83;100.00;102755.06;5074324;28;20386;-36